sensor_id;sensor_type;location;lat;lon;timestamp;P1;durP1;ratioP1;P2;durP2;ratioP2
38427;SDS011;24211;49.980;19.776;2023-07-31T00:01:42;2.80;;;1.27;;
38427;SDS011;24211;49.980;19.776;2023-07-31T00:04:09;2.45;;;1.30;;
38427;SDS011;24211;49.980;19.776;2023-07-31T00:06:37;2.50;;;1.40;;
38427;SDS011;24211;49.980;19.776;2023-07-31T00:09:04;2.70;;;1.30;;
38427;SDS011;24211;49.980;19.776;2023-07-31T00:11:32;2.25;;;1.20;;
38427;SDS011;24211;49.980;19.776;2023-07-31T00:13:59;2.28;;;1.00;;
38427;SDS011;24211;49.980;19.776;2023-07-31T00:16:26;2.97;;;1.10;;
38427;SDS011;24211;49.980;19.776;2023-07-31T00:18:54;2.80;;;1.20;;
38427;SDS011;24211;49.980;19.776;2023-07-31T00:21:23;2.45;;;1.17;;
38427;SDS011;24211;49.980;19.776;2023-07-31T00:23:51;3.22;;;1.25;;
38427;SDS011;24211;49.980;19.776;2023-07-31T00:26:18;2.58;;;1.20;;
38427;SDS011;24211;49.980;19.776;2023-07-31T00:28:45;3.22;;;1.40;;
38427;SDS011;24211;49.980;19.776;2023-07-31T00:31:14;2.92;;;1.15;;
38427;SDS011;24211;49.980;19.776;2023-07-31T00:33:41;2.50;;;1.13;;
38427;SDS011;24211;49.980;19.776;2023-07-31T00:36:08;2.03;;;1.10;;
38427;SDS011;24211;49.980;19.776;2023-07-31T00:38:35;1.88;;;0.95;;
38427;SDS011;24211;49.980;19.776;2023-07-31T00:41:02;2.80;;;1.30;;
38427;SDS011;24211;49.980;19.776;2023-07-31T00:43:29;2.03;;;1.00;;
38427;SDS011;24211;49.980;19.776;2023-07-31T00:45:57;2.35;;;1.30;;
38427;SDS011;24211;49.980;19.776;2023-07-31T00:48:24;2.38;;;1.20;;
38427;SDS011;24211;49.980;19.776;2023-07-31T00:50:53;2.38;;;1.10;;
38427;SDS011;24211;49.980;19.776;2023-07-31T00:53:20;3.05;;;1.17;;
38427;SDS011;24211;49.980;19.776;2023-07-31T00:55:49;1.83;;;1.02;;
38427;SDS011;24211;49.980;19.776;2023-07-31T00:58:19;2.97;;;1.30;;
38427;SDS011;24211;49.980;19.776;2023-07-31T01:00:46;2.22;;;1.00;;
38427;SDS011;24211;49.980;19.776;2023-07-31T01:03:14;2.83;;;1.05;;
38427;SDS011;24211;49.980;19.776;2023-07-31T01:09:03;2.65;;;1.02;;
38427;SDS011;24211;49.980;19.776;2023-07-31T01:11:49;2.30;;;1.10;;
38427;SDS011;24211;49.980;19.776;2023-07-31T01:14:23;3.40;;;1.27;;
38427;SDS011;24211;49.980;19.776;2023-07-31T01:16:50;2.38;;;1.10;;
38427;SDS011;24211;49.980;19.776;2023-07-31T01:19:18;2.65;;;1.30;;
38427;SDS011;24211;49.980;19.776;2023-07-31T01:24:34;2.63;;;1.20;;
38427;SDS011;24211;49.980;19.776;2023-07-31T01:27:35;3.33;;;1.20;;
38427;SDS011;24211;49.980;19.776;2023-07-31T01:30:16;2.25;;;1.15;;
38427;SDS011;24211;49.980;19.776;2023-07-31T01:32:52;3.90;;;1.20;;
38427;SDS011;24211;49.980;19.776;2023-07-31T01:35:22;4.03;;;1.45;;
38427;SDS011;24211;49.980;19.776;2023-07-31T01:37:54;2.60;;;1.30;;
38427;SDS011;24211;49.980;19.776;2023-07-31T01:40:21;3.00;;;1.30;;
38427;SDS011;24211;49.980;19.776;2023-07-31T01:42:49;2.28;;;1.20;;
38427;SDS011;24211;49.980;19.776;2023-07-31T01:45:16;2.80;;;1.40;;
38427;SDS011;24211;49.980;19.776;2023-07-31T01:47:43;2.80;;;1.35;;
38427;SDS011;24211;49.980;19.776;2023-07-31T01:50:11;2.00;;;1.20;;
38427;SDS011;24211;49.980;19.776;2023-07-31T01:52:39;3.05;;;1.30;;
38427;SDS011;24211;49.980;19.776;2023-07-31T01:55:07;3.60;;;1.35;;
38427;SDS011;24211;49.980;19.776;2023-07-31T01:57:36;2.75;;;1.35;;
38427;SDS011;24211;49.980;19.776;2023-07-31T02:00:04;2.72;;;1.30;;
38427;SDS011;24211;49.980;19.776;2023-07-31T02:02:37;2.53;;;1.10;;
38427;SDS011;24211;49.980;19.776;2023-07-31T02:05:05;3.03;;;1.23;;
38427;SDS011;24211;49.980;19.776;2023-07-31T02:07:33;3.25;;;1.30;;
38427;SDS011;24211;49.980;19.776;2023-07-31T02:10:00;3.53;;;1.20;;
38427;SDS011;24211;49.980;19.776;2023-07-31T02:12:27;2.90;;;1.30;;
38427;SDS011;24211;49.980;19.776;2023-07-31T02:14:57;2.95;;;1.33;;
38427;SDS011;24211;49.980;19.776;2023-07-31T02:17:24;3.13;;;1.30;;
38427;SDS011;24211;49.980;19.776;2023-07-31T02:19:52;3.70;;;1.10;;
38427;SDS011;24211;49.980;19.776;2023-07-31T02:22:19;2.70;;;1.20;;
38427;SDS011;24211;49.980;19.776;2023-07-31T02:24:46;2.50;;;1.10;;
38427;SDS011;24211;49.980;19.776;2023-07-31T02:27:14;2.80;;;1.10;;
38427;SDS011;24211;49.980;19.776;2023-07-31T02:29:41;2.03;;;1.00;;
38427;SDS011;24211;49.980;19.776;2023-07-31T02:32:08;2.70;;;1.20;;
38427;SDS011;24211;49.980;19.776;2023-07-31T02:34:36;2.00;;;1.10;;
38427;SDS011;24211;49.980;19.776;2023-07-31T02:37:03;2.28;;;1.20;;
38427;SDS011;24211;49.980;19.776;2023-07-31T02:39:30;2.35;;;1.02;;
38427;SDS011;24211;49.980;19.776;2023-07-31T02:41:59;3.33;;;1.30;;
38427;SDS011;24211;49.980;19.776;2023-07-31T02:44:27;2.88;;;1.27;;
38427;SDS011;24211;49.980;19.776;2023-07-31T02:46:54;3.17;;;1.20;;
38427;SDS011;24211;49.980;19.776;2023-07-31T02:49:21;3.13;;;1.40;;
38427;SDS011;24211;49.980;19.776;2023-07-31T02:51:48;3.35;;;1.42;;
38427;SDS011;24211;49.980;19.776;2023-07-31T02:54:15;3.35;;;1.50;;
38427;SDS011;24211;49.980;19.776;2023-07-31T02:56:43;5.05;;;1.35;;
38427;SDS011;24211;49.980;19.776;2023-07-31T02:59:10;3.15;;;1.60;;
38427;SDS011;24211;49.980;19.776;2023-07-31T03:01:37;3.20;;;1.60;;
38427;SDS011;24211;49.980;19.776;2023-07-31T03:04:05;3.08;;;1.45;;
38427;SDS011;24211;49.980;19.776;2023-07-31T03:06:33;3.67;;;1.48;;
38427;SDS011;24211;49.980;19.776;2023-07-31T03:09:03;4.38;;;1.48;;
38427;SDS011;24211;49.980;19.776;2023-07-31T03:11:31;3.40;;;1.60;;
38427;SDS011;24211;49.980;19.776;2023-07-31T03:13:58;2.67;;;1.33;;
38427;SDS011;24211;49.980;19.776;2023-07-31T03:16:26;4.65;;;1.45;;
38427;SDS011;24211;49.980;19.776;2023-07-31T03:18:54;2.38;;;1.40;;
38427;SDS011;24211;49.980;19.776;2023-07-31T03:21:21;2.80;;;1.30;;
38427;SDS011;24211;49.980;19.776;2023-07-31T03:23:49;3.20;;;1.40;;
38427;SDS011;24211;49.980;19.776;2023-07-31T03:26:17;3.75;;;1.58;;
38427;SDS011;24211;49.980;19.776;2023-07-31T03:28:44;3.08;;;1.58;;
38427;SDS011;24211;49.980;19.776;2023-07-31T03:31:11;2.55;;;1.30;;
38427;SDS011;24211;49.980;19.776;2023-07-31T03:33:39;2.63;;;1.30;;
38427;SDS011;24211;49.980;19.776;2023-07-31T03:36:06;2.55;;;1.35;;
38427;SDS011;24211;49.980;19.776;2023-07-31T03:38:34;2.20;;;1.30;;
38427;SDS011;24211;49.980;19.776;2023-07-31T03:41:03;3.10;;;1.20;;
38427;SDS011;24211;49.980;19.776;2023-07-31T03:43:32;2.20;;;1.20;;
38427;SDS011;24211;49.980;19.776;2023-07-31T03:46:02;2.38;;;1.20;;
38427;SDS011;24211;49.980;19.776;2023-07-31T03:48:30;2.42;;;1.38;;
38427;SDS011;24211;49.980;19.776;2023-07-31T03:50:57;2.75;;;1.30;;
38427;SDS011;24211;49.980;19.776;2023-07-31T03:53:24;4.38;;;1.33;;
38427;SDS011;24211;49.980;19.776;2023-07-31T03:55:52;3.00;;;1.40;;
38427;SDS011;24211;49.980;19.776;2023-07-31T03:58:21;6.40;;;1.25;;
38427;SDS011;24211;49.980;19.776;2023-07-31T04:00:49;2.28;;;1.20;;
38427;SDS011;24211;49.980;19.776;2023-07-31T04:03:15;2.15;;;1.20;;
38427;SDS011;24211;49.980;19.776;2023-07-31T04:05:43;1.90;;;0.93;;
38427;SDS011;24211;49.980;19.776;2023-07-31T04:08:11;2.22;;;1.00;;
38427;SDS011;24211;49.980;19.776;2023-07-31T04:10:38;2.72;;;1.20;;
38427;SDS011;24211;49.980;19.776;2023-07-31T04:13:12;3.22;;;1.13;;
38427;SDS011;24211;49.980;19.776;2023-07-31T04:15:41;2.90;;;1.23;;
38427;SDS011;24211;49.980;19.776;2023-07-31T04:18:08;2.40;;;1.10;;
38427;SDS011;24211;49.980;19.776;2023-07-31T04:20:54;2.22;;;1.10;;
38427;SDS011;24211;49.980;19.776;2023-07-31T04:23:28;3.50;;;1.60;;
38427;SDS011;24211;49.980;19.776;2023-07-31T04:25:56;3.10;;;1.50;;
38427;SDS011;24211;49.980;19.776;2023-07-31T04:28:23;2.30;;;1.35;;
38427;SDS011;24211;49.980;19.776;2023-07-31T04:30:53;2.90;;;1.52;;
38427;SDS011;24211;49.980;19.776;2023-07-31T04:33:24;3.07;;;1.37;;
38427;SDS011;24211;49.980;19.776;2023-07-31T04:36:00;3.85;;;1.45;;
38427;SDS011;24211;49.980;19.776;2023-07-31T04:38:27;4.80;;;1.65;;
38427;SDS011;24211;49.980;19.776;2023-07-31T04:40:58;3.53;;;1.48;;
38427;SDS011;24211;49.980;19.776;2023-07-31T04:43:26;3.13;;;1.30;;
38427;SDS011;24211;49.980;19.776;2023-07-31T04:45:59;3.50;;;1.55;;
38427;SDS011;24211;49.980;19.776;2023-07-31T04:48:27;3.53;;;1.60;;
38427;SDS011;24211;49.980;19.776;2023-07-31T04:50:56;3.42;;;1.83;;
38427;SDS011;24211;49.980;19.776;2023-07-31T04:53:23;3.20;;;1.60;;
38427;SDS011;24211;49.980;19.776;2023-07-31T04:55:51;4.22;;;1.75;;
38427;SDS011;24211;49.980;19.776;2023-07-31T04:58:18;4.10;;;1.90;;
38427;SDS011;24211;49.980;19.776;2023-07-31T05:00:45;3.53;;;1.60;;
38427;SDS011;24211;49.980;19.776;2023-07-31T05:03:13;3.40;;;1.58;;
38427;SDS011;24211;49.980;19.776;2023-07-31T05:05:41;3.55;;;1.65;;
38427;SDS011;24211;49.980;19.776;2023-07-31T05:08:12;4.18;;;1.70;;
38427;SDS011;24211;49.980;19.776;2023-07-31T05:10:45;3.40;;;1.48;;
38427;SDS011;24211;49.980;19.776;2023-07-31T05:13:13;3.35;;;1.60;;
38427;SDS011;24211;49.980;19.776;2023-07-31T05:15:42;3.95;;;1.55;;
38427;SDS011;24211;49.980;19.776;2023-07-31T05:18:09;2.80;;;1.63;;
38427;SDS011;24211;49.980;19.776;2023-07-31T05:20:44;3.70;;;1.77;;
38427;SDS011;24211;49.980;19.776;2023-07-31T05:23:22;3.45;;;1.70;;
38427;SDS011;24211;49.980;19.776;2023-07-31T05:25:49;3.78;;;1.60;;
38427;SDS011;24211;49.980;19.776;2023-07-31T05:28:17;2.60;;;1.50;;
38427;SDS011;24211;49.980;19.776;2023-07-31T05:30:44;2.85;;;1.30;;
38427;SDS011;24211;49.980;19.776;2023-07-31T05:33:19;3.25;;;1.52;;
38427;SDS011;24211;49.980;19.776;2023-07-31T05:35:46;2.78;;;1.33;;
38427;SDS011;24211;49.980;19.776;2023-07-31T05:38:14;2.63;;;1.52;;
38427;SDS011;24211;49.980;19.776;2023-07-31T05:40:42;2.95;;;1.38;;
38427;SDS011;24211;49.980;19.776;2023-07-31T05:43:10;3.30;;;1.60;;
38427;SDS011;24211;49.980;19.776;2023-07-31T05:45:37;3.17;;;1.60;;
38427;SDS011;24211;49.980;19.776;2023-07-31T05:48:08;3.88;;;1.60;;
38427;SDS011;24211;49.980;19.776;2023-07-31T05:50:37;3.80;;;1.80;;
38427;SDS011;24211;49.980;19.776;2023-07-31T05:53:11;3.50;;;1.73;;
38427;SDS011;24211;49.980;19.776;2023-07-31T05:55:42;3.38;;;1.80;;
38427;SDS011;24211;49.980;19.776;2023-07-31T05:58:09;3.70;;;1.80;;
38427;SDS011;24211;49.980;19.776;2023-07-31T06:00:37;4.28;;;1.90;;
38427;SDS011;24211;49.980;19.776;2023-07-31T06:03:04;4.13;;;1.88;;
38427;SDS011;24211;49.980;19.776;2023-07-31T06:05:31;2.90;;;1.67;;
38427;SDS011;24211;49.980;19.776;2023-07-31T06:07:59;4.25;;;2.00;;
38427;SDS011;24211;49.980;19.776;2023-07-31T06:10:26;4.53;;;1.88;;
38427;SDS011;24211;49.980;19.776;2023-07-31T06:12:54;3.45;;;1.80;;
38427;SDS011;24211;49.980;19.776;2023-07-31T06:17:54;3.30;;;1.85;;
38427;SDS011;24211;49.980;19.776;2023-07-31T06:20:21;3.42;;;1.70;;
38427;SDS011;24211;49.980;19.776;2023-07-31T06:22:49;3.50;;;1.88;;
38427;SDS011;24211;49.980;19.776;2023-07-31T06:25:16;5.25;;;1.75;;
38427;SDS011;24211;49.980;19.776;2023-07-31T06:27:43;4.30;;;1.90;;
38427;SDS011;24211;49.980;19.776;2023-07-31T06:30:11;5.63;;;2.05;;
38427;SDS011;24211;49.980;19.776;2023-07-31T06:32:38;3.53;;;1.65;;
38427;SDS011;24211;49.980;19.776;2023-07-31T06:35:12;2.95;;;1.75;;
38427;SDS011;24211;49.980;19.776;2023-07-31T06:37:39;3.67;;;1.92;;
38427;SDS011;24211;49.980;19.776;2023-07-31T06:40:07;2.90;;;1.60;;
38427;SDS011;24211;49.980;19.776;2023-07-31T06:42:35;3.60;;;1.80;;
38427;SDS011;24211;49.980;19.776;2023-07-31T06:45:12;4.28;;;1.60;;
38427;SDS011;24211;49.980;19.776;2023-07-31T06:47:51;2.95;;;1.35;;
38427;SDS011;24211;49.980;19.776;2023-07-31T06:50:19;3.15;;;1.60;;
38427;SDS011;24211;49.980;19.776;2023-07-31T06:52:46;2.85;;;1.50;;
38427;SDS011;24211;49.980;19.776;2023-07-31T06:55:18;2.72;;;1.52;;
38427;SDS011;24211;49.980;19.776;2023-07-31T06:58:00;2.40;;;1.33;;
38427;SDS011;24211;49.980;19.776;2023-07-31T07:00:28;4.47;;;1.55;;
38427;SDS011;24211;49.980;19.776;2023-07-31T07:02:55;3.72;;;1.48;;
38427;SDS011;24211;49.980;19.776;2023-07-31T07:05:23;3.03;;;1.30;;
38427;SDS011;24211;49.980;19.776;2023-07-31T07:07:50;3.65;;;1.52;;
38427;SDS011;24211;49.980;19.776;2023-07-31T07:10:20;3.30;;;1.42;;
38427;SDS011;24211;49.980;19.776;2023-07-31T07:12:48;2.50;;;1.20;;
38427;SDS011;24211;49.980;19.776;2023-07-31T07:15:23;4.40;;;1.42;;
38427;SDS011;24211;49.980;19.776;2023-07-31T07:17:51;3.28;;;1.35;;
38427;SDS011;24211;49.980;19.776;2023-07-31T07:20:19;3.40;;;1.35;;
38427;SDS011;24211;49.980;19.776;2023-07-31T07:22:46;3.03;;;1.40;;
38427;SDS011;24211;49.980;19.776;2023-07-31T07:25:16;3.38;;;1.50;;
38427;SDS011;24211;49.980;19.776;2023-07-31T07:27:43;3.08;;;1.40;;
38427;SDS011;24211;49.980;19.776;2023-07-31T07:30:10;2.70;;;1.30;;
38427;SDS011;24211;49.980;19.776;2023-07-31T07:32:38;3.40;;;1.60;;
38427;SDS011;24211;49.980;19.776;2023-07-31T07:35:11;3.05;;;1.30;;
38427;SDS011;24211;49.980;19.776;2023-07-31T07:37:42;3.50;;;1.50;;
38427;SDS011;24211;49.980;19.776;2023-07-31T07:40:10;3.13;;;1.50;;
38427;SDS011;24211;49.980;19.776;2023-07-31T07:42:37;4.70;;;1.42;;
38427;SDS011;24211;49.980;19.776;2023-07-31T07:45:07;4.32;;;1.67;;
38427;SDS011;24211;49.980;19.776;2023-07-31T07:47:35;3.15;;;1.50;;
38427;SDS011;24211;49.980;19.776;2023-07-31T07:50:03;3.17;;;1.48;;
38427;SDS011;24211;49.980;19.776;2023-07-31T07:52:35;3.33;;;1.60;;
38427;SDS011;24211;49.980;19.776;2023-07-31T07:55:03;4.40;;;1.60;;
38427;SDS011;24211;49.980;19.776;2023-07-31T07:57:31;3.88;;;1.52;;
38427;SDS011;24211;49.980;19.776;2023-07-31T07:59:58;3.80;;;1.45;;
38427;SDS011;24211;49.980;19.776;2023-07-31T08:02:39;2.72;;;1.33;;
38427;SDS011;24211;49.980;19.776;2023-07-31T08:05:07;1.90;;;1.20;;
38427;SDS011;24211;49.980;19.776;2023-07-31T08:07:35;2.97;;;1.35;;
38427;SDS011;24211;49.980;19.776;2023-07-31T08:10:09;2.83;;;1.45;;
38427;SDS011;24211;49.980;19.776;2023-07-31T08:12:37;3.25;;;1.30;;
38427;SDS011;24211;49.980;19.776;2023-07-31T08:15:04;2.67;;;1.10;;
38427;SDS011;24211;49.980;19.776;2023-07-31T08:17:32;2.60;;;1.45;;
38427;SDS011;24211;49.980;19.776;2023-07-31T08:20:00;2.78;;;1.33;;
38427;SDS011;24211;49.980;19.776;2023-07-31T08:22:49;2.13;;;1.10;;
38427;SDS011;24211;49.980;19.776;2023-07-31T08:25:16;3.65;;;1.30;;
38427;SDS011;24211;49.980;19.776;2023-07-31T08:27:44;2.53;;;1.10;;
38427;SDS011;24211;49.980;19.776;2023-07-31T08:30:11;2.80;;;1.35;;
38427;SDS011;24211;49.980;19.776;2023-07-31T08:32:43;2.20;;;1.25;;
38427;SDS011;24211;49.980;19.776;2023-07-31T08:35:26;3.30;;;1.35;;
38427;SDS011;24211;49.980;19.776;2023-07-31T08:37:59;3.72;;;1.52;;
38427;SDS011;24211;49.980;19.776;2023-07-31T08:40:26;2.95;;;1.50;;
38427;SDS011;24211;49.980;19.776;2023-07-31T08:42:55;3.25;;;1.27;;
38427;SDS011;24211;49.980;19.776;2023-07-31T08:45:29;4.13;;;1.50;;
38427;SDS011;24211;49.980;19.776;2023-07-31T08:48:11;3.65;;;1.50;;
38427;SDS011;24211;49.980;19.776;2023-07-31T08:50:43;4.15;;;1.48;;
38427;SDS011;24211;49.980;19.776;2023-07-31T08:53:10;2.72;;;1.20;;
38427;SDS011;24211;49.980;19.776;2023-07-31T08:55:38;2.83;;;1.52;;
38427;SDS011;24211;49.980;19.776;2023-07-31T08:58:05;4.22;;;1.42;;
38427;SDS011;24211;49.980;19.776;2023-07-31T09:00:40;2.90;;;1.55;;
38427;SDS011;24211;49.980;19.776;2023-07-31T09:03:14;3.73;;;1.47;;
38427;SDS011;24211;49.980;19.776;2023-07-31T09:05:46;2.53;;;1.25;;
38427;SDS011;24211;49.980;19.776;2023-07-31T09:08:15;2.55;;;1.20;;
38427;SDS011;24211;49.980;19.776;2023-07-31T09:10:47;3.58;;;1.10;;
38427;SDS011;24211;49.980;19.776;2023-07-31T09:13:18;2.15;;;1.00;;
38427;SDS011;24211;49.980;19.776;2023-07-31T09:15:47;4.13;;;1.33;;
38427;SDS011;24211;49.980;19.776;2023-07-31T09:18:18;3.38;;;1.10;;
38427;SDS011;24211;49.980;19.776;2023-07-31T09:21:02;4.35;;;1.33;;
38427;SDS011;24211;49.980;19.776;2023-07-31T09:23:43;2.90;;;1.30;;
38427;SDS011;24211;49.980;19.776;2023-07-31T09:26:33;3.35;;;1.30;;
38427;SDS011;24211;49.980;19.776;2023-07-31T09:29:18;2.58;;;1.20;;
38427;SDS011;24211;49.980;19.776;2023-07-31T09:31:55;2.85;;;1.23;;
38427;SDS011;24211;49.980;19.776;2023-07-31T09:34:30;3.53;;;1.23;;
38427;SDS011;24211;49.980;19.776;2023-07-31T09:37:07;2.25;;;0.90;;
38427;SDS011;24211;49.980;19.776;2023-07-31T09:39:47;2.90;;;1.20;;
38427;SDS011;24211;49.980;19.776;2023-07-31T09:42:25;3.05;;;1.10;;
38427;SDS011;24211;49.980;19.776;2023-07-31T09:44:55;3.25;;;0.90;;
38427;SDS011;24211;49.980;19.776;2023-07-31T09:47:36;1.88;;;1.08;;
38427;SDS011;24211;49.980;19.776;2023-07-31T09:50:06;3.35;;;1.10;;
38427;SDS011;24211;49.980;19.776;2023-07-31T09:52:37;4.13;;;1.15;;
38427;SDS011;24211;49.980;19.776;2023-07-31T09:55:05;3.22;;;1.13;;
38427;SDS011;24211;49.980;19.776;2023-07-31T09:57:40;2.30;;;0.85;;
38427;SDS011;24211;49.980;19.776;2023-07-31T10:00:11;4.00;;;1.05;;
38427;SDS011;24211;49.980;19.776;2023-07-31T10:02:43;3.17;;;0.95;;
38427;SDS011;24211;49.980;19.776;2023-07-31T10:07:56;2.15;;;0.98;;
38427;SDS011;24211;49.980;19.776;2023-07-31T10:10:24;5.40;;;1.20;;
38427;SDS011;24211;49.980;19.776;2023-07-31T10:12:59;2.80;;;1.35;;
38427;SDS011;24211;49.980;19.776;2023-07-31T10:15:28;2.15;;;1.15;;
38427;SDS011;24211;49.980;19.776;2023-07-31T10:18:00;3.40;;;1.20;;
38427;SDS011;24211;49.980;19.776;2023-07-31T10:20:33;2.33;;;1.10;;
38427;SDS011;24211;49.980;19.776;2023-07-31T10:23:03;2.28;;;1.13;;
38427;SDS011;24211;49.980;19.776;2023-07-31T10:25:30;3.17;;;1.10;;
38427;SDS011;24211;49.980;19.776;2023-07-31T10:27:59;2.45;;;1.00;;
38427;SDS011;24211;49.980;19.776;2023-07-31T10:30:27;4.22;;;1.10;;
38427;SDS011;24211;49.980;19.776;2023-07-31T10:33:05;3.00;;;1.15;;
38427;SDS011;24211;49.980;19.776;2023-07-31T10:35:33;2.38;;;0.90;;
38427;SDS011;24211;49.980;19.776;2023-07-31T10:38:11;3.20;;;1.05;;
38427;SDS011;24211;49.980;19.776;2023-07-31T10:40:43;2.08;;;1.00;;
38427;SDS011;24211;49.980;19.776;2023-07-31T10:43:23;2.78;;;1.00;;
38427;SDS011;24211;49.980;19.776;2023-07-31T10:46:07;2.60;;;1.10;;
38427;SDS011;24211;49.980;19.776;2023-07-31T10:48:39;2.03;;;1.00;;
38427;SDS011;24211;49.980;19.776;2023-07-31T10:51:15;2.03;;;1.05;;
38427;SDS011;24211;49.980;19.776;2023-07-31T10:53:47;2.35;;;1.05;;
38427;SDS011;24211;49.980;19.776;2023-07-31T10:56:15;2.53;;;1.10;;
38427;SDS011;24211;49.980;19.776;2023-07-31T10:59:00;3.50;;;1.25;;
38427;SDS011;24211;49.980;19.776;2023-07-31T11:04:22;4.05;;;1.00;;
38427;SDS011;24211;49.980;19.776;2023-07-31T11:07:01;2.42;;;0.98;;
38427;SDS011;24211;49.980;19.776;2023-07-31T11:09:35;1.80;;;1.00;;
38427;SDS011;24211;49.980;19.776;2023-07-31T11:12:03;2.53;;;1.00;;
38427;SDS011;24211;49.980;19.776;2023-07-31T11:14:32;2.40;;;1.00;;
38427;SDS011;24211;49.980;19.776;2023-07-31T11:17:08;1.95;;;0.90;;
38427;SDS011;24211;49.980;19.776;2023-07-31T11:19:36;1.30;;;0.80;;
38427;SDS011;24211;49.980;19.776;2023-07-31T11:22:05;1.67;;;0.70;;
38427;SDS011;24211;49.980;19.776;2023-07-31T11:24:35;2.50;;;1.08;;
38427;SDS011;24211;49.980;19.776;2023-07-31T11:27:07;2.17;;;1.00;;
38427;SDS011;24211;49.980;19.776;2023-07-31T11:29:39;2.22;;;0.95;;
38427;SDS011;24211;49.980;19.776;2023-07-31T11:32:15;2.90;;;1.00;;
38427;SDS011;24211;49.980;19.776;2023-07-31T11:34:54;3.13;;;1.10;;
38427;SDS011;24211;49.980;19.776;2023-07-31T11:37:23;1.90;;;0.90;;
38427;SDS011;24211;49.980;19.776;2023-07-31T11:40:00;2.35;;;1.00;;
38427;SDS011;24211;49.980;19.776;2023-07-31T11:42:31;3.60;;;1.13;;
38427;SDS011;24211;49.980;19.776;2023-07-31T11:45:07;2.28;;;1.00;;
38427;SDS011;24211;49.980;19.776;2023-07-31T11:47:41;3.33;;;1.20;;
38427;SDS011;24211;49.980;19.776;2023-07-31T11:50:10;3.35;;;1.10;;
38427;SDS011;24211;49.980;19.776;2023-07-31T11:52:40;2.13;;;0.90;;
38427;SDS011;24211;49.980;19.776;2023-07-31T11:55:12;3.28;;;0.95;;
38427;SDS011;24211;49.980;19.776;2023-07-31T11:57:41;2.63;;;0.98;;
38427;SDS011;24211;49.980;19.776;2023-07-31T12:00:15;2.92;;;1.00;;
38427;SDS011;24211;49.980;19.776;2023-07-31T12:02:48;2.00;;;1.02;;
38427;SDS011;24211;49.980;19.776;2023-07-31T12:05:20;1.92;;;1.02;;
38427;SDS011;24211;49.980;19.776;2023-07-31T12:08:13;1.67;;;1.02;;
38427;SDS011;24211;49.980;19.776;2023-07-31T12:10:42;2.20;;;0.95;;
38427;SDS011;24211;49.980;19.776;2023-07-31T12:13:11;2.13;;;1.00;;
38427;SDS011;24211;49.980;19.776;2023-07-31T12:15:53;1.98;;;0.80;;
38427;SDS011;24211;49.980;19.776;2023-07-31T12:18:24;1.73;;;0.88;;
38427;SDS011;24211;49.980;19.776;2023-07-31T12:20:58;1.60;;;0.90;;
38427;SDS011;24211;49.980;19.776;2023-07-31T12:23:33;1.33;;;0.80;;
38427;SDS011;24211;49.980;19.776;2023-07-31T12:26:12;2.22;;;0.85;;
38427;SDS011;24211;49.980;19.776;2023-07-31T12:28:46;2.28;;;0.82;;
38427;SDS011;24211;49.980;19.776;2023-07-31T12:31:18;1.98;;;0.85;;
38427;SDS011;24211;49.980;19.776;2023-07-31T12:33:50;2.35;;;1.20;;
38427;SDS011;24211;49.980;19.776;2023-07-31T12:36:20;1.45;;;0.80;;
38427;SDS011;24211;49.980;19.776;2023-07-31T12:39:09;2.73;;;0.87;;
38427;SDS011;24211;49.980;19.776;2023-07-31T12:41:42;4.38;;;1.23;;
38427;SDS011;24211;49.980;19.776;2023-07-31T12:44:09;2.00;;;1.00;;
38427;SDS011;24211;49.980;19.776;2023-07-31T12:46:39;2.30;;;0.95;;
38427;SDS011;24211;49.980;19.776;2023-07-31T12:49:07;2.63;;;1.00;;
38427;SDS011;24211;49.980;19.776;2023-07-31T12:51:38;1.83;;;1.02;;
38427;SDS011;24211;49.980;19.776;2023-07-31T12:54:05;2.55;;;1.08;;
38427;SDS011;24211;49.980;19.776;2023-07-31T12:56:33;2.50;;;0.98;;
38427;SDS011;24211;49.980;19.776;2023-07-31T12:59:02;2.85;;;0.90;;
38427;SDS011;24211;49.980;19.776;2023-07-31T13:01:31;2.13;;;0.93;;
38427;SDS011;24211;49.980;19.776;2023-07-31T13:03:58;2.97;;;0.85;;
38427;SDS011;24211;49.980;19.776;2023-07-31T13:06:29;2.45;;;1.00;;
38427;SDS011;24211;49.980;19.776;2023-07-31T13:08:56;2.45;;;1.00;;
38427;SDS011;24211;49.980;19.776;2023-07-31T13:11:23;1.98;;;1.10;;
38427;SDS011;24211;49.980;19.776;2023-07-31T13:13:58;2.58;;;1.17;;
38427;SDS011;24211;49.980;19.776;2023-07-31T13:16:26;3.13;;;1.20;;
38427;SDS011;24211;49.980;19.776;2023-07-31T13:18:54;2.10;;;1.08;;
38427;SDS011;24211;49.980;19.776;2023-07-31T13:21:22;2.47;;;1.00;;
38427;SDS011;24211;49.980;19.776;2023-07-31T13:23:49;1.88;;;0.82;;
38427;SDS011;24211;49.980;19.776;2023-07-31T13:26:17;2.30;;;1.08;;
38427;SDS011;24211;49.980;19.776;2023-07-31T13:28:44;2.80;;;1.10;;
38427;SDS011;24211;49.980;19.776;2023-07-31T13:31:17;2.22;;;1.15;;
38427;SDS011;24211;49.980;19.776;2023-07-31T13:33:44;2.45;;;1.08;;
38427;SDS011;24211;49.980;19.776;2023-07-31T13:36:15;2.65;;;1.20;;
38427;SDS011;24211;49.980;19.776;2023-07-31T13:38:43;2.47;;;1.00;;
38427;SDS011;24211;49.980;19.776;2023-07-31T13:41:18;1.95;;;0.98;;
38427;SDS011;24211;49.980;19.776;2023-07-31T13:43:45;4.15;;;1.23;;
38427;SDS011;24211;49.980;19.776;2023-07-31T13:46:15;3.55;;;1.10;;
38427;SDS011;24211;49.980;19.776;2023-07-31T13:48:42;2.53;;;1.00;;
38427;SDS011;24211;49.980;19.776;2023-07-31T13:51:10;1.60;;;0.88;;
38427;SDS011;24211;49.980;19.776;2023-07-31T13:53:37;2.35;;;0.90;;
38427;SDS011;24211;49.980;19.776;2023-07-31T13:56:05;1.92;;;0.80;;
38427;SDS011;24211;49.980;19.776;2023-07-31T13:58:33;3.40;;;1.00;;
38427;SDS011;24211;49.980;19.776;2023-07-31T14:01:08;2.67;;;0.90;;
38427;SDS011;24211;49.980;19.776;2023-07-31T14:03:35;2.33;;;1.00;;
38427;SDS011;24211;49.980;19.776;2023-07-31T14:06:03;1.38;;;0.73;;
38427;SDS011;24211;49.980;19.776;2023-07-31T14:08:36;2.35;;;0.90;;
38427;SDS011;24211;49.980;19.776;2023-07-31T14:11:06;1.52;;;0.80;;
38427;SDS011;24211;49.980;19.776;2023-07-31T14:13:33;2.13;;;0.98;;
38427;SDS011;24211;49.980;19.776;2023-07-31T14:16:08;2.15;;;0.98;;
38427;SDS011;24211;49.980;19.776;2023-07-31T14:18:50;2.50;;;1.00;;
38427;SDS011;24211;49.980;19.776;2023-07-31T14:21:18;1.70;;;0.80;;
38427;SDS011;24211;49.980;19.776;2023-07-31T14:23:46;1.77;;;0.88;;
38427;SDS011;24211;49.980;19.776;2023-07-31T14:26:14;1.90;;;0.75;;
38427;SDS011;24211;49.980;19.776;2023-07-31T14:28:42;3.13;;;0.88;;
38427;SDS011;24211;49.980;19.776;2023-07-31T14:31:14;1.77;;;0.80;;
38427;SDS011;24211;49.980;19.776;2023-07-31T14:33:42;2.55;;;0.95;;
38427;SDS011;24211;49.980;19.776;2023-07-31T14:36:15;1.75;;;0.75;;
38427;SDS011;24211;49.980;19.776;2023-07-31T14:38:42;1.63;;;0.70;;
38427;SDS011;24211;49.980;19.776;2023-07-31T14:41:16;2.40;;;0.80;;
38427;SDS011;24211;49.980;19.776;2023-07-31T14:43:43;1.92;;;0.70;;
38427;SDS011;24211;49.980;19.776;2023-07-31T14:46:11;1.30;;;0.70;;
38427;SDS011;24211;49.980;19.776;2023-07-31T14:48:39;3.58;;;0.80;;
38427;SDS011;24211;49.980;19.776;2023-07-31T14:51:06;1.67;;;0.90;;
38427;SDS011;24211;49.980;19.776;2023-07-31T14:53:34;1.83;;;0.80;;
38427;SDS011;24211;49.980;19.776;2023-07-31T14:56:02;1.38;;;0.70;;
38427;SDS011;24211;49.980;19.776;2023-07-31T14:58:30;1.48;;;0.80;;
38427;SDS011;24211;49.980;19.776;2023-07-31T15:01:02;1.73;;;0.77;;
38427;SDS011;24211;49.980;19.776;2023-07-31T15:03:55;1.60;;;0.73;;
38427;SDS011;24211;49.980;19.776;2023-07-31T15:06:25;1.13;;;0.60;;